Cincinnati, OH

12:28 PM EST on February 10, 2016 (GMT -0500)
College Hill | | Change Station
CLOSE
Current Station
Personal Weather Station
Location: Cincinnati, OH
Elevation: 922 ft
Nearby Weather Stations

Elev 922 ft 39.20 °N, 84.56 °W | Updated 28 seconds ago

Overcast
Overcast
18.3 °F
Feels Like 8 °F
N
8.1
Wind Variable Wind from South
Gusts 9.8 mph

Today
High -- | Low -- °F
--% Chance of Precip.
Yesterday
High -- | Low -- °F
Precip. -- in
Pressure 30.10 in
Visibility 4.0 miles
Clouds Few 2200 ft
Mostly Cloudy 2700 ft
Overcast 3300 ft
Windchill 8 °F
Dew Point 6 °F
Humidity 59%
Rainfall 0.00 in
Snow Depth Not available.
7:36 AM 6:09 PM
Waxing Crescent, 6% visible
METAR KLUK 101653Z 26012KT 4SM -SN FEW022 BKN027 OVC033 M08/M12 A3007 RMK AO2 SLP191 P0000 T10781122
Pressure 30.10 in
Visibility 4.0 miles
Clouds Few 2200 ft
Mostly Cloudy 2700 ft
Overcast 3300 ft
Windchill 8 °F
Dew Point 6 °F
Humidity 59%
Rainfall 0.00 in
Snow Depth Not available.
7:36 AM 6:09 PM
Waxing Crescent, 6% visible
METAR KLUK 101653Z 26012KT 4SM -SN FEW022 BKN027 OVC033 M08/M12 A3007 RMK AO2 SLP191 P0000 T10781122

10-Day Weather Forecast

Almanac

Astronomy

Feb. 10, 2016 Rise Set
Actual Time
Civil Twilight
Nautical Twilight
Astronomical Twilight
Moon
Length of Visible Light
Length of Day
Tomorrow will be .
, % of the Moon is Illuminated

Today's Extremes

State Highs State Lows

Community

WunderPhotos

Upload Photos

1,891,895 photos uploaded!

WunderBlog® & News

Nearby

Air Quality

  Air Quality AQ Index Pollutant
Not available.

Snow Depth

Station Depth Elevation

Earthquake Activity

City Distance Mag. Time & Date
Minimum magnitude displayed is 2.5.

Coastal Water Temperatures

Place Temperature

Stations

Nearby Weather Stations

Station Location Temp. Windchill Dew Point Humidity Wind Precip. Elev Updated Type
                   

Watches & Warnings

There are currently no watches in effect.